sensor_id;sensor_type;location;lat;lon;timestamp;pressure;altitude;pressure_sealevel;temperature;humidity
75942;BME280;64622;46.220;19.878;2023-08-21T00:00:42;100773.06;;;23.09;98.11
75942;BME280;64622;46.220;19.878;2023-08-21T00:03:08;100781.03;;;23.10;98.15
75942;BME280;64622;46.220;19.878;2023-08-21T00:05:35;100779.22;;;23.04;98.19
75942;BME280;64622;46.220;19.878;2023-08-21T00:08:02;100785.03;;;23.08;98.24
75942;BME280;64622;46.220;19.878;2023-08-21T00:10:30;100780.88;;;23.05;98.31
75942;BME280;64622;46.220;19.878;2023-08-21T00:12:57;100773.59;;;22.99;98.31
75942;BME280;64622;46.220;19.878;2023-08-21T00:15:23;100776.41;;;22.93;98.33
75942;BME280;64622;46.220;19.878;2023-08-21T00:17:50;100782.66;;;22.93;98.50
75942;BME280;64622;46.220;19.878;2023-08-21T00:20:17;100779.19;;;22.86;98.60
75942;BME280;64622;46.220;19.878;2023-08-21T00:22:43;100787.97;;;22.88;98.66
75942;BME280;64622;46.220;19.878;2023-08-21T00:25:10;100780.84;;;22.87;98.75
75942;BME280;64622;46.220;19.878;2023-08-21T00:27:36;100777.59;;;22.79;98.86
75942;BME280;64622;46.220;19.878;2023-08-21T00:30:04;100784.72;;;22.80;98.89
75942;BME280;64622;46.220;19.878;2023-08-21T00:32:30;100787.91;;;22.77;99.01
75942;BME280;64622;46.220;19.878;2023-08-21T00:34:57;100784.12;;;22.78;99.09
75942;BME280;64622;46.220;19.878;2023-08-21T00:37:24;100790.38;;;22.78;99.08
75942;BME280;64622;46.220;19.878;2023-08-21T00:39:50;100785.78;;;22.79;99.11
75942;BME280;64622;46.220;19.878;2023-08-21T00:42:17;100777.44;;;22.74;99.12
75942;BME280;64622;46.220;19.878;2023-08-21T00:44:44;100775.31;;;22.76;99.20
75942;BME280;64622;46.220;19.878;2023-08-21T00:47:10;100780.00;;;22.69;99.27
75942;BME280;64622;46.220;19.878;2023-08-21T00:49:37;100776.69;;;22.67;99.35
75942;BME280;64622;46.220;19.878;2023-08-21T00:52:08;100781.72;;;22.63;99.47
75942;BME280;64622;46.220;19.878;2023-08-21T00:54:35;100784.53;;;22.57;99.56
75942;BME280;64622;46.220;19.878;2023-08-21T00:57:02;100785.16;;;22.59;99.68
75942;BME280;64622;46.220;19.878;2023-08-21T00:59:29;100789.16;;;22.56;99.78
75942;BME280;64622;46.220;19.878;2023-08-21T01:01:56;100773.91;;;22.49;99.98
75942;BME280;64622;46.220;19.878;2023-08-21T01:04:22;100779.97;;;22.51;100.00
75942;BME280;64622;46.220;19.878;2023-08-21T01:06:49;100782.94;;;22.49;100.00
75942;BME280;64622;46.220;19.878;2023-08-21T01:09:30;100777.72;;;22.41;100.00
75942;BME280;64622;46.220;19.878;2023-08-21T01:12:37;100773.53;;;22.45;100.00
75942;BME280;64622;46.220;19.878;2023-08-21T01:15:06;100783.59;;;22.45;100.00
75942;BME280;64622;46.220;19.878;2023-08-21T01:17:38;100772.47;;;22.40;100.00
75942;BME280;64622;46.220;19.878;2023-08-21T01:20:07;100778.56;;;22.42;100.00
75942;BME280;64622;46.220;19.878;2023-08-21T01:22:40;100772.53;;;22.33;100.00
75942;BME280;64622;46.220;19.878;2023-08-21T01:25:07;100780.28;;;22.36;100.00
75942;BME280;64622;46.220;19.878;2023-08-21T01:27:43;100782.16;;;22.36;100.00
75942;BME280;64622;46.220;19.878;2023-08-21T01:30:12;100773.22;;;22.29;100.00
75942;BME280;64622;46.220;19.878;2023-08-21T01:33:16;100776.63;;;22.24;100.00
75942;BME280;64622;46.220;19.878;2023-08-21T01:35:43;100776.37;;;22.26;100.00
75942;BME280;64622;46.220;19.878;2023-08-21T01:38:11;100780.38;;;22.23;100.00
75942;BME280;64622;46.220;19.878;2023-08-21T01:40:39;100778.12;;;22.20;100.00
75942;BME280;64622;46.220;19.878;2023-08-21T01:43:06;100773.09;;;22.17;100.00
75942;BME280;64622;46.220;19.878;2023-08-21T01:45:33;100776.50;;;22.13;100.00
75942;BME280;64622;46.220;19.878;2023-08-21T01:48:00;100774.41;;;22.08;100.00
75942;BME280;64622;46.220;19.878;2023-08-21T01:50:27;100762.16;;;21.99;100.00
75942;BME280;64622;46.220;19.878;2023-08-21T01:52:54;100761.31;;;21.99;100.00
75942;BME280;64622;46.220;19.878;2023-08-21T01:55:21;100767.19;;;21.96;100.00
75942;BME280;64622;46.220;19.878;2023-08-21T01:57:49;100767.81;;;21.98;100.00
75942;BME280;64622;46.220;19.878;2023-08-21T02:00:16;100774.06;;;21.98;100.00
75942;BME280;64622;46.220;19.878;2023-08-21T02:02:44;100775.44;;;21.89;100.00
75942;BME280;64622;46.220;19.878;2023-08-21T02:05:10;100772.53;;;21.84;100.00
75942;BME280;64622;46.220;19.878;2023-08-21T02:07:38;100773.38;;;21.78;100.00
75942;BME280;64622;46.220;19.878;2023-08-21T02:10:05;100777.00;;;21.66;100.00
75942;BME280;64622;46.220;19.878;2023-08-21T02:12:33;100780.59;;;21.60;100.00
75942;BME280;64622;46.220;19.878;2023-08-21T02:15:00;100774.19;;;21.48;100.00
75942;BME280;64622;46.220;19.878;2023-08-21T02:17:27;100789.66;;;21.54;100.00
75942;BME280;64622;46.220;19.878;2023-08-21T02:19:54;100782.06;;;21.56;100.00
75942;BME280;64622;46.220;19.878;2023-08-21T02:22:20;100787.53;;;21.56;100.00
75942;BME280;64622;46.220;19.878;2023-08-21T02:24:47;100788.12;;;21.64;100.00
75942;BME280;64622;46.220;19.878;2023-08-21T02:27:14;100779.16;;;21.57;100.00
75942;BME280;64622;46.220;19.878;2023-08-21T02:29:40;100783.13;;;21.55;100.00
75942;BME280;64622;46.220;19.878;2023-08-21T02:32:07;100786.25;;;21.58;100.00
75942;BME280;64622;46.220;19.878;2023-08-21T02:34:33;100785.47;;;21.51;100.00
75942;BME280;64622;46.220;19.878;2023-08-21T02:37:00;100795.50;;;21.51;100.00
75942;BME280;64622;46.220;19.878;2023-08-21T02:39:28;100788.84;;;21.47;100.00
75942;BME280;64622;46.220;19.878;2023-08-21T02:41:54;100799.56;;;21.42;100.00
75942;BME280;64622;46.220;19.878;2023-08-21T02:44:21;100793.06;;;21.43;100.00
75942;BME280;64622;46.220;19.878;2023-08-21T02:46:47;100789.09;;;21.39;100.00
75942;BME280;64622;46.220;19.878;2023-08-21T02:49:14;100785.75;;;21.37;100.00
75942;BME280;64622;46.220;19.878;2023-08-21T02:51:41;100787.03;;;21.34;100.00
75942;BME280;64622;46.220;19.878;2023-08-21T02:54:07;100797.69;;;21.36;100.00
75942;BME280;64622;46.220;19.878;2023-08-21T02:56:34;100802.53;;;21.34;100.00
75942;BME280;64622;46.220;19.878;2023-08-21T02:59:00;100796.03;;;21.28;100.00
75942;BME280;64622;46.220;19.878;2023-08-21T03:01:27;100787.47;;;21.25;100.00
75942;BME280;64622;46.220;19.878;2023-08-21T03:03:54;100793.78;;;21.25;100.00
75942;BME280;64622;46.220;19.878;2023-08-21T03:06:21;100788.34;;;21.19;100.00
75942;BME280;64622;46.220;19.878;2023-08-21T03:08:47;100784.81;;;21.12;100.00
75942;BME280;64622;46.220;19.878;2023-08-21T03:11:13;100790.47;;;21.17;100.00
75942;BME280;64622;46.220;19.878;2023-08-21T03:13:40;100789.22;;;21.13;100.00
75942;BME280;64622;46.220;19.878;2023-08-21T03:16:07;100803.44;;;21.15;100.00
75942;BME280;64622;46.220;19.878;2023-08-21T03:18:54;100791.75;;;21.08;100.00
75942;BME280;64622;46.220;19.878;2023-08-21T03:21:21;100796.97;;;21.09;100.00
75942;BME280;64622;46.220;19.878;2023-08-21T03:23:55;100782.75;;;21.01;100.00
75942;BME280;64622;46.220;19.878;2023-08-21T03:26:23;100789.69;;;20.97;100.00
75942;BME280;64622;46.220;19.878;2023-08-21T03:28:51;100797.62;;;20.98;100.00
75942;BME280;64622;46.220;19.878;2023-08-21T03:31:17;100789.87;;;20.89;100.00
75942;BME280;64622;46.220;19.878;2023-08-21T03:33:44;100792.59;;;20.89;100.00
75942;BME280;64622;46.220;19.878;2023-08-21T03:36:12;100808.06;;;20.88;100.00
75942;BME280;64622;46.220;19.878;2023-08-21T03:38:39;100800.75;;;20.82;100.00
75942;BME280;64622;46.220;19.878;2023-08-21T03:41:06;100808.94;;;20.82;100.00
75942;BME280;64622;46.220;19.878;2023-08-21T03:43:34;100797.44;;;20.80;100.00
75942;BME280;64622;46.220;19.878;2023-08-21T03:46:01;100807.91;;;20.77;100.00
75942;BME280;64622;46.220;19.878;2023-08-21T03:48:27;100809.59;;;20.71;100.00
75942;BME280;64622;46.220;19.878;2023-08-21T03:50:54;100814.81;;;20.66;100.00
75942;BME280;64622;46.220;19.878;2023-08-21T03:53:20;100813.97;;;20.66;100.00
75942;BME280;64622;46.220;19.878;2023-08-21T03:55:47;100811.50;;;20.64;100.00
75942;BME280;64622;46.220;19.878;2023-08-21T03:58:14;100817.53;;;20.73;100.00
75942;BME280;64622;46.220;19.878;2023-08-21T04:00:41;100817.13;;;20.69;100.00
75942;BME280;64622;46.220;19.878;2023-08-21T04:03:08;100824.84;;;20.72;100.00
75942;BME280;64622;46.220;19.878;2023-08-21T04:05:34;100813.78;;;20.67;100.00
75942;BME280;64622;46.220;19.878;2023-08-21T04:08:01;100822.78;;;20.74;100.00
75942;BME280;64622;46.220;19.878;2023-08-21T04:10:28;100812.31;;;20.71;100.00
75942;BME280;64622;46.220;19.878;2023-08-21T04:12:56;100821.06;;;20.73;100.00
75942;BME280;64622;46.220;19.878;2023-08-21T04:15:22;100824.00;;;20.78;100.00
75942;BME280;64622;46.220;19.878;2023-08-21T04:17:49;100818.75;;;20.83;100.00
75942;BME280;64622;46.220;19.878;2023-08-21T04:20:16;100822.34;;;20.90;100.00
75942;BME280;64622;46.220;19.878;2023-08-21T04:22:42;100820.25;;;20.92;100.00
75942;BME280;64622;46.220;19.878;2023-08-21T04:25:09;100823.34;;;21.02;100.00
75942;BME280;64622;46.220;19.878;2023-08-21T04:27:36;100837.97;;;21.21;100.00
75942;BME280;64622;46.220;19.878;2023-08-21T04:30:03;100823.66;;;21.38;100.00
75942;BME280;64622;46.220;19.878;2023-08-21T04:32:32;100832.75;;;21.63;100.00
75942;BME280;64622;46.220;19.878;2023-08-21T04:34:58;100829.34;;;21.81;100.00
75942;BME280;64622;46.220;19.878;2023-08-21T04:37:25;100839.06;;;22.01;100.00
75942;BME280;64622;46.220;19.878;2023-08-21T04:39:53;100840.87;;;22.14;100.00
75942;BME280;64622;46.220;19.878;2023-08-21T04:42:21;100841.63;;;22.27;100.00
75942;BME280;64622;46.220;19.878;2023-08-21T04:44:48;100843.87;;;22.37;100.00
75942;BME280;64622;46.220;19.878;2023-08-21T04:47:23;100834.78;;;22.49;100.00
75942;BME280;64622;46.220;19.878;2023-08-21T04:49:50;100846.84;;;22.60;100.00
75942;BME280;64622;46.220;19.878;2023-08-21T04:52:18;100847.37;;;22.68;100.00
75942;BME280;64622;46.220;19.878;2023-08-21T04:54:46;100846.84;;;22.84;100.00
75942;BME280;64622;46.220;19.878;2023-08-21T04:57:13;100843.53;;;23.00;100.00
75942;BME280;64622;46.220;19.878;2023-08-21T04:59:40;100846.41;;;23.05;100.00
75942;BME280;64622;46.220;19.878;2023-08-21T05:02:07;100854.91;;;23.15;100.00
75942;BME280;64622;46.220;19.878;2023-08-21T05:04:36;100850.31;;;23.34;100.00
75942;BME280;64622;46.220;19.878;2023-08-21T05:07:04;100848.19;;;23.54;100.00
75942;BME280;64622;46.220;19.878;2023-08-21T05:09:32;100864.81;;;23.82;100.00
75942;BME280;64622;46.220;19.878;2023-08-21T05:11:58;100864.37;;;23.85;100.00
75942;BME280;64622;46.220;19.878;2023-08-21T05:14:25;100865.41;;;24.02;100.00
75942;BME280;64622;46.220;19.878;2023-08-21T05:16:52;100868.56;;;24.17;99.93
75942;BME280;64622;46.220;19.878;2023-08-21T05:19:18;100864.66;;;24.24;99.72
75942;BME280;64622;46.220;19.878;2023-08-21T05:21:45;100863.28;;;24.45;99.08
75942;BME280;64622;46.220;19.878;2023-08-21T05:24:12;100863.78;;;24.53;98.99
75942;BME280;64622;46.220;19.878;2023-08-21T05:26:39;100868.84;;;24.68;98.47
75942;BME280;64622;46.220;19.878;2023-08-21T05:29:06;100875.16;;;25.03;98.04
75942;BME280;64622;46.220;19.878;2023-08-21T05:31:32;100875.50;;;24.95;97.89
75942;BME280;64622;46.220;19.878;2023-08-21T05:34:00;100872.06;;;25.34;97.70
75942;BME280;64622;46.220;19.878;2023-08-21T05:36:26;100881.94;;;25.46;96.51
75942;BME280;64622;46.220;19.878;2023-08-21T05:38:53;100873.59;;;25.53;96.77
75942;BME280;64622;46.220;19.878;2023-08-21T05:41:20;100860.31;;;25.89;95.67
75942;BME280;64622;46.220;19.878;2023-08-21T05:43:47;100867.28;;;25.92;95.43
75942;BME280;64622;46.220;19.878;2023-08-21T05:46:15;100875.69;;;26.30;95.03
75942;BME280;64622;46.220;19.878;2023-08-21T05:48:42;100868.91;;;26.49;94.35
75942;BME280;64622;46.220;19.878;2023-08-21T05:51:08;100871.37;;;26.50;92.80
75942;BME280;64622;46.220;19.878;2023-08-21T05:53:35;100860.34;;;26.62;92.72
75942;BME280;64622;46.220;19.878;2023-08-21T05:56:02;100864.25;;;26.99;92.00
75942;BME280;64622;46.220;19.878;2023-08-21T05:58:30;100865.28;;;27.14;91.26
75942;BME280;64622;46.220;19.878;2023-08-21T06:00:58;100867.09;;;27.42;90.51
75942;BME280;64622;46.220;19.878;2023-08-21T06:03:26;100878.34;;;27.62;89.61
75942;BME280;64622;46.220;19.878;2023-08-21T06:05:53;100871.44;;;28.02;88.48
75942;BME280;64622;46.220;19.878;2023-08-21T06:08:19;100874.88;;;28.14;87.40
75942;BME280;64622;46.220;19.878;2023-08-21T06:10:51;100866.75;;;28.29;86.37
75942;BME280;64622;46.220;19.878;2023-08-21T06:13:17;100872.59;;;28.59;84.61
75942;BME280;64622;46.220;19.878;2023-08-21T06:15:44;100859.88;;;28.53;83.82
75942;BME280;64622;46.220;19.878;2023-08-21T06:18:14;100873.72;;;28.63;83.64
75942;BME280;64622;46.220;19.878;2023-08-21T06:20:42;100874.28;;;28.97;82.64
75942;BME280;64622;46.220;19.878;2023-08-21T06:23:12;100874.63;;;29.05;80.68
75942;BME280;64622;46.220;19.878;2023-08-21T06:25:39;100871.44;;;29.23;79.16
75942;BME280;64622;46.220;19.878;2023-08-21T06:28:05;100868.56;;;29.50;78.35
75942;BME280;64622;46.220;19.878;2023-08-21T06:30:32;100857.56;;;29.55;75.30
75942;BME280;64622;46.220;19.878;2023-08-21T06:32:59;100864.91;;;29.39;74.67
75942;BME280;64622;46.220;19.878;2023-08-21T06:35:26;100871.81;;;30.03;74.63
75942;BME280;64622;46.220;19.878;2023-08-21T06:37:53;100873.47;;;29.99;72.86
75942;BME280;64622;46.220;19.878;2023-08-21T06:40:21;100872.62;;;30.09;72.58
75942;BME280;64622;46.220;19.878;2023-08-21T06:42:47;100870.78;;;30.19;72.54
75942;BME280;64622;46.220;19.878;2023-08-21T06:45:18;100879.38;;;30.63;69.89
75942;BME280;64622;46.220;19.878;2023-08-21T06:47:45;100891.31;;;30.93;68.38
75942;BME280;64622;46.220;19.878;2023-08-21T06:50:12;100879.41;;;30.83;67.98
75942;BME280;64622;46.220;19.878;2023-08-21T06:52:39;100875.25;;;30.85;67.34
75942;BME280;64622;46.220;19.878;2023-08-21T06:55:06;100882.97;;;31.18;67.67
75942;BME280;64622;46.220;19.878;2023-08-21T06:57:33;100886.53;;;31.39;64.92
75942;BME280;64622;46.220;19.878;2023-08-21T06:59:59;100884.78;;;31.78;63.62
75942;BME280;64622;46.220;19.878;2023-08-21T07:02:26;100886.19;;;31.61;65.17
75942;BME280;64622;46.220;19.878;2023-08-21T07:04:53;100891.94;;;32.38;61.55
75942;BME280;64622;46.220;19.878;2023-08-21T07:07:19;100880.69;;;32.14;62.28
75942;BME280;64622;46.220;19.878;2023-08-21T07:09:46;100889.66;;;32.50;60.59
75942;BME280;64622;46.220;19.878;2023-08-21T07:12:13;100888.13;;;32.24;60.45
75942;BME280;64622;46.220;19.878;2023-08-21T07:14:39;100896.69;;;32.32;60.58
75942;BME280;64622;46.220;19.878;2023-08-21T07:17:06;100891.56;;;32.88;59.02
75942;BME280;64622;46.220;19.878;2023-08-21T07:19:32;100895.50;;;32.82;58.62
75942;BME280;64622;46.220;19.878;2023-08-21T07:21:59;100890.06;;;33.00;58.12
75942;BME280;64622;46.220;19.878;2023-08-21T07:24:25;100898.19;;;32.92;57.01
75942;BME280;64622;46.220;19.878;2023-08-21T07:26:52;100898.69;;;32.99;57.39
75942;BME280;64622;46.220;19.878;2023-08-21T07:29:18;100895.47;;;33.15;55.47
75942;BME280;64622;46.220;19.878;2023-08-21T07:31:45;100898.56;;;32.80;55.87
75942;BME280;64622;46.220;19.878;2023-08-21T07:34:11;100901.66;;;33.07;55.12
75942;BME280;64622;46.220;19.878;2023-08-21T07:36:38;100899.66;;;33.41;53.90
75942;BME280;64622;46.220;19.878;2023-08-21T07:39:05;100895.06;;;33.27;52.30
75942;BME280;64622;46.220;19.878;2023-08-21T07:41:31;100897.59;;;33.75;52.75
75942;BME280;64622;46.220;19.878;2023-08-21T07:43:58;100889.59;;;33.69;51.63
75942;BME280;64622;46.220;19.878;2023-08-21T07:46:25;100894.16;;;34.07;50.21
75942;BME280;64622;46.220;19.878;2023-08-21T07:48:52;100902.13;;;34.13;50.48
75942;BME280;64622;46.220;19.878;2023-08-21T07:51:19;100890.81;;;34.28;50.13
75942;BME280;64622;46.220;19.878;2023-08-21T07:53:45;100896.12;;;34.80;48.34
75942;BME280;64622;46.220;19.878;2023-08-21T07:56:12;100890.09;;;34.73;48.86
75942;BME280;64622;46.220;19.878;2023-08-21T07:58:38;100896.12;;;34.62;47.16
75942;BME280;64622;46.220;19.878;2023-08-21T08:01:05;100887.34;;;34.55;47.43
75942;BME280;64622;46.220;19.878;2023-08-21T08:03:33;100890.41;;;34.72;47.28
75942;BME280;64622;46.220;19.878;2023-08-21T08:05:59;100890.41;;;35.36;46.12
75942;BME280;64622;46.220;19.878;2023-08-21T08:08:25;100887.63;;;35.36;45.38
75942;BME280;64622;46.220;19.878;2023-08-21T08:10:52;100884.53;;;34.18;48.83
75942;BME280;64622;46.220;19.878;2023-08-21T08:13:19;100886.59;;;35.00;46.27
75942;BME280;64622;46.220;19.878;2023-08-21T08:15:45;100876.16;;;34.92;46.09
75942;BME280;64622;46.220;19.878;2023-08-21T08:18:13;100878.66;;;35.07;44.63
75942;BME280;64622;46.220;19.878;2023-08-21T08:20:40;100887.31;;;35.64;43.22
75942;BME280;64622;46.220;19.878;2023-08-21T08:23:06;100884.84;;;35.49;43.73
75942;BME280;64622;46.220;19.878;2023-08-21T08:25:33;100880.28;;;35.94;42.07
75942;BME280;64622;46.220;19.878;2023-08-21T08:27:59;100880.03;;;36.17;41.52
75942;BME280;64622;46.220;19.878;2023-08-21T08:30:26;100883.16;;;36.29;41.05
75942;BME280;64622;46.220;19.878;2023-08-21T08:32:53;100893.53;;;36.37;41.02
75942;BME280;64622;46.220;19.878;2023-08-21T08:35:20;100875.03;;;35.92;41.69
75942;BME280;64622;46.220;19.878;2023-08-21T08:37:46;100883.63;;;35.96;40.96
75942;BME280;64622;46.220;19.878;2023-08-21T08:40:13;100884.19;;;36.20;41.04
75942;BME280;64622;46.220;19.878;2023-08-21T08:42:40;100884.22;;;35.66;41.63
75942;BME280;64622;46.220;19.878;2023-08-21T08:45:07;100885.06;;;35.93;41.79
75942;BME280;64622;46.220;19.878;2023-08-21T08:47:35;100887.03;;;36.64;39.86
75942;BME280;64622;46.220;19.878;2023-08-21T08:50:05;100899.47;;;36.80;38.84
75942;BME280;64622;46.220;19.878;2023-08-21T08:52:36;100895.41;;;37.08;38.10
75942;BME280;64622;46.220;19.878;2023-08-21T08:55:03;100889.50;;;37.09;38.72
75942;BME280;64622;46.220;19.878;2023-08-21T08:57:33;100890.44;;;37.05;37.47
75942;BME280;64622;46.220;19.878;2023-08-21T09:00:01;100895.41;;;37.08;37.79
75942;BME280;64622;46.220;19.878;2023-08-21T09:02:30;100892.56;;;36.77;38.63
75942;BME280;64622;46.220;19.878;2023-08-21T09:04:57;100894.59;;;36.85;37.60
75942;BME280;64622;46.220;19.878;2023-08-21T09:07:23;100886.50;;;36.75;38.14
75942;BME280;64622;46.220;19.878;2023-08-21T09:09:50;100889.62;;;37.57;36.74
75942;BME280;64622;46.220;19.878;2023-08-21T09:12:19;100879.09;;;38.10;36.21
75942;BME280;64622;46.220;19.878;2023-08-21T09:14:46;100879.53;;;37.86;35.81
75942;BME280;64622;46.220;19.878;2023-08-21T09:17:13;100875.66;;;38.13;35.52
75942;BME280;64622;46.220;19.878;2023-08-21T09:19:40;100872.22;;;38.24;35.31
75942;BME280;64622;46.220;19.878;2023-08-21T09:22:12;100878.13;;;38.23;34.28
75942;BME280;64622;46.220;19.878;2023-08-21T09:24:40;100873.34;;;38.15;34.88
75942;BME280;64622;46.220;19.878;2023-08-21T09:27:15;100880.00;;;38.53;34.34
75942;BME280;64622;46.220;19.878;2023-08-21T09:29:42;100874.50;;;38.14;35.45
75942;BME280;64622;46.220;19.878;2023-08-21T09:32:09;100879.62;;;38.37;34.69
75942;BME280;64622;46.220;19.878;2023-08-21T09:34:36;100867.31;;;38.47;33.85
75942;BME280;64622;46.220;19.878;2023-08-21T09:37:05;100869.59;;;38.28;33.79
75942;BME280;64622;46.220;19.878;2023-08-21T09:39:37;100877.44;;;37.22;34.12
75942;BME280;64622;46.220;19.878;2023-08-21T09:42:07;100872.25;;;37.68;32.58
75942;BME280;64622;46.220;19.878;2023-08-21T09:44:38;100871.06;;;38.76;31.88
75942;BME280;64622;46.220;19.878;2023-08-21T09:47:10;100870.03;;;39.06;30.29
75942;BME280;64622;46.220;19.878;2023-08-21T09:49:38;100862.53;;;39.36;30.67
75942;BME280;64622;46.220;19.878;2023-08-21T09:52:07;100863.69;;;39.35;31.12
75942;BME280;64622;46.220;19.878;2023-08-21T09:54:38;100863.13;;;39.04;32.34
75942;BME280;64622;46.220;19.878;2023-08-21T09:57:04;100861.88;;;38.42;33.45
75942;BME280;64622;46.220;19.878;2023-08-21T09:59:31;100862.50;;;38.73;32.92
75942;BME280;64622;46.220;19.878;2023-08-21T10:02:00;100853.00;;;38.57;32.96
75942;BME280;64622;46.220;19.878;2023-08-21T10:04:28;100850.75;;;39.51;31.65
75942;BME280;64622;46.220;19.878;2023-08-21T10:06:59;100859.22;;;38.88;32.42
75942;BME280;64622;46.220;19.878;2023-08-21T10:09:27;100857.06;;;39.02;31.05
75942;BME280;64622;46.220;19.878;2023-08-21T10:11:55;100859.97;;;39.14;31.48
75942;BME280;64622;46.220;19.878;2023-08-21T10:14:23;100855.41;;;38.92;30.75
75942;BME280;64622;46.220;19.878;2023-08-21T10:16:53;100853.13;;;37.14;33.62
75942;BME280;64622;46.220;19.878;2023-08-21T10:19:20;100845.12;;;35.30;36.92
75942;BME280;64622;46.220;19.878;2023-08-21T10:21:48;100855.84;;;36.84;34.89
75942;BME280;64622;46.220;19.878;2023-08-21T10:24:37;100853.87;;;37.84;33.08
75942;BME280;64622;46.220;19.878;2023-08-21T10:27:06;100844.94;;;38.55;31.92
75942;BME280;64622;46.220;19.878;2023-08-21T10:29:33;100842.25;;;37.52;34.14
75942;BME280;64622;46.220;19.878;2023-08-21T10:32:04;100829.94;;;38.26;32.93
75942;BME280;64622;46.220;19.878;2023-08-21T10:34:36;100840.97;;;38.56;32.37
75942;BME280;64622;46.220;19.878;2023-08-21T10:37:10;100842.16;;;39.56;31.26
75942;BME280;64622;46.220;19.878;2023-08-21T10:39:44;100843.09;;;39.39;30.33
75942;BME280;64622;46.220;19.878;2023-08-21T10:42:19;100839.88;;;39.58;29.67
75942;BME280;64622;46.220;19.878;2023-08-21T10:44:47;100836.19;;;38.48;31.86
75942;BME280;64622;46.220;19.878;2023-08-21T10:49:55;100841.72;;;39.83;29.64
75942;BME280;64622;46.220;19.878;2023-08-21T10:52:39;100835.41;;;40.15;29.54
75942;BME280;64622;46.220;19.878;2023-08-21T10:55:12;100840.47;;;40.21;29.76
75942;BME280;64622;46.220;19.878;2023-08-21T10:57:40;100833.91;;;39.30;30.74
75942;BME280;64622;46.220;19.878;2023-08-21T11:00:11;100817.53;;;38.86;29.65
75942;BME280;64622;46.220;19.878;2023-08-21T11:02:39;100820.66;;;39.02;30.44
75942;BME280;64622;46.220;19.878;2023-08-21T11:05:07;100827.09;;;39.69;28.97
75942;BME280;64622;46.220;19.878;2023-08-21T11:07:38;100833.09;;;39.21;30.11
75942;BME280;64622;46.220;19.878;2023-08-21T11:10:07;100825.97;;;38.61;32.10
75942;BME280;64622;46.220;19.878;2023-08-21T11:12:35;100818.69;;;39.69;29.79
75942;BME280;64622;46.220;19.878;2023-08-21T11:15:04;100817.03;;;39.76;28.74
75942;BME280;64622;46.220;19.878;2023-08-21T11:17:32;100809.66;;;40.13;28.45
75942;BME280;64622;46.220;19.878;2023-08-21T11:20:00;100817.72;;;40.88;28.26
75942;BME280;64622;46.220;19.878;2023-08-21T11:22:28;100816.22;;;40.58;27.81
75942;BME280;64622;46.220;19.878;2023-08-21T11:24:57;100803.44;;;40.28;28.28
75942;BME280;64622;46.220;19.878;2023-08-21T11:27:23;100801.09;;;39.22;30.09
75942;BME280;64622;46.220;19.878;2023-08-21T11:29:51;100805.75;;;39.85;29.52
75942;BME280;64622;46.220;19.878;2023-08-21T11:32:20;100797.88;;;39.99;29.16
75942;BME280;64622;46.220;19.878;2023-08-21T11:34:52;100797.13;;;38.77;30.74
75942;BME280;64622;46.220;19.878;2023-08-21T11:37:22;100800.28;;;39.30;29.75
75942;BME280;64622;46.220;19.878;2023-08-21T11:42:16;100800.59;;;40.48;28.37
75942;BME280;64622;46.220;19.878;2023-08-21T11:44:45;100793.09;;;39.79;29.64
75942;BME280;64622;46.220;19.878;2023-08-21T11:47:12;100792.03;;;38.88;30.43
75942;BME280;64622;46.220;19.878;2023-08-21T11:49:40;100792.72;;;38.51;30.98
75942;BME280;64622;46.220;19.878;2023-08-21T11:52:11;100789.03;;;38.93;30.23
75942;BME280;64622;46.220;19.878;2023-08-21T11:54:39;100796.87;;;38.45;31.31
75942;BME280;64622;46.220;19.878;2023-08-21T11:57:14;100795.28;;;39.36;30.34
75942;BME280;64622;46.220;19.878;2023-08-21T11:59:41;100786.19;;;39.76;29.71
75942;BME280;64622;46.220;19.878;2023-08-21T12:02:18;100784.19;;;39.48;29.81
75942;BME280;64622;46.220;19.878;2023-08-21T12:04:45;100781.06;;;39.99;29.16
75942;BME280;64622;46.220;19.878;2023-08-21T12:07:17;100780.91;;;39.08;30.35
75942;BME280;64622;46.220;19.878;2023-08-21T12:09:47;100779.37;;;39.57;29.28
75942;BME280;64622;46.220;19.878;2023-08-21T12:12:17;100774.22;;;39.59;29.40
75942;BME280;64622;46.220;19.878;2023-08-21T12:14:44;100772.72;;;40.31;28.44
75942;BME280;64622;46.220;19.878;2023-08-21T12:17:10;100782.25;;;40.51;28.17
75942;BME280;64622;46.220;19.878;2023-08-21T12:19:37;100776.16;;;40.49;28.26
75942;BME280;64622;46.220;19.878;2023-08-21T12:22:04;100773.78;;;40.59;28.17
75942;BME280;64622;46.220;19.878;2023-08-21T12:24:30;100772.25;;;37.48;33.02
75942;BME280;64622;46.220;19.878;2023-08-21T12:26:57;100764.03;;;38.71;31.14
75942;BME280;64622;46.220;19.878;2023-08-21T12:29:24;100756.19;;;39.68;29.95
75942;BME280;64622;46.220;19.878;2023-08-21T12:31:50;100769.69;;;39.75;29.92
75942;BME280;64622;46.220;19.878;2023-08-21T12:34:17;100762.91;;;40.37;28.57
75942;BME280;64622;46.220;19.878;2023-08-21T12:36:44;100768.87;;;41.13;27.22
75942;BME280;64622;46.220;19.878;2023-08-21T12:39:10;100761.25;;;41.01;27.50
75942;BME280;64622;46.220;19.878;2023-08-21T12:41:37;100765.19;;;39.53;29.21
75942;BME280;64622;46.220;19.878;2023-08-21T12:44:03;100757.53;;;38.50;29.77